Terminal Aerodrome Forecast
Issued by NWS

Home | Current Version | Previous Version | Text Only | Print | Product List | Glossary Off
Versions: 1 2 3 4 5 6 7 8 9 10 11 12 13 14 15 16 17

703
FTUS43 KTOP 050530
TAFMHK
TAF
KMHK 050530Z 0506/0606 20002KT 4SM BR MIFG SKC
      TEMPO 0506/0509 2SM BR MIFG
     FM051000 19005KT 6SM BR SCT008
     FM051500 20015G24KT P6SM SKC=

USA.gov is the U.S. government's official web portal to all federal, state and local government web resources and services.